»·PEaware :: AAL225 KRNO-KBOI

AAL225 :: KRNO-KBOI

FLIGHT INFORMATION

Flight Status: Arrived
Operator:
American Airlines
More flights by this operator :: More flights under this callsign
Pilot: Michael R. (16974)
Aircraft: BOEING 737-800
(B738)
More flights by this aircraft type
Origin: KRNO Reno/Tahoe Intl
United States
Destination: KBOI Boise Air Terminal/Gowen
United States
More flights between these airports :: More routes between these airports
Route: +RENO9 FMG PRNCS SADYL3
File this flight plan on PilotEdge
Remarks:
Altitude:
(Current/Filed)
29,000ft
Speed:
(Current/Filed)
420kts
Departed: 17-Mar-18 01:06 PM
Arrived: 17-Mar-18 01:58 PM
Distance/Time
Traveled:
291nm/0:51
Distance/Time
To Go:
Arrived

Flight Plot

Page will automatically refresh every two minutes.

Flight plan parsing failed; only flown route is shown


Map Options




Map Legend


Flown Route
Filed Route
Departure Airport
Arrival Airport
Navaid (VOR, NDB)
Fix

Horizontal Profiles

Position Reports

Time Latitude Longitude Heading Altitude Ground
Speed
17-Mar-18 12:38 39.504383 -119.774229 16 4414ft 0kts
17-Mar-18 12:39 39.504383 -119.774229 16 4414ft 0kts
17-Mar-18 12:40 39.504383 -119.774229 16 4414ft 0kts
17-Mar-18 12:41 39.504383 -119.774229 16 4414ft 0kts
17-Mar-18 12:42 39.504383 -119.774229 16 4414ft 0kts
17-Mar-18 12:43 39.504383 -119.774229 16 4414ft 0kts
17-Mar-18 12:44 39.504383 -119.774229 16 4414ft 0kts
17-Mar-18 12:45 39.504383 -119.774229 16 4414ft 0kts
17-Mar-18 12:46 39.504383 -119.774229 16 4414ft 0kts
17-Mar-18 12:47 39.504383 -119.774229 16 4414ft 0kts
17-Mar-18 12:48 39.504383 -119.774229 16 4414ft 0kts
17-Mar-18 12:49 39.504383 -119.774229 16 4414ft 0kts
17-Mar-18 12:50 39.504383 -119.774229 16 4414ft 0kts
17-Mar-18 12:51 39.504383 -119.774229 16 4414ft 0kts
17-Mar-18 12:52 39.504383 -119.774229 16 4414ft 0kts
17-Mar-18 12:53 39.504378 -119.774231 17 4414ft 1kts
17-Mar-18 12:54 39.503966 -119.773966 347 4414ft 1kts
17-Mar-18 12:55 39.503729 -119.774339 98 4414ft 1kts
17-Mar-18 12:56 39.503731 -119.774396 88 4414ft 0kts
17-Mar-18 12:57 39.503731 -119.774396 88 4414ft 0kts
17-Mar-18 12:58 39.503742 -119.772358 90 4411ft 0kts
17-Mar-18 12:59 39.503742 -119.772357 90 4411ft 0kts
17-Mar-18 13:00 39.507661 -119.771513 359 4414ft 21kts
17-Mar-18 13:01 39.513305 -119.771477 8 4419ft 11kts
17-Mar-18 13:02 39.513735 -119.770603 87 4418ft 0kts
17-Mar-18 13:03 39.513735 -119.770603 87 4418ft 0kts
17-Mar-18 13:04 39.513736 -119.770572 87 4418ft 2kts
17-Mar-18 13:05 39.512055 -119.769193 180 4417ft 51kts
17-Mar-18 13:06 39.468331 -119.768861 177 6141ft 200kts
17-Mar-18 13:07 39.401452 -119.763459 177 8355ft 259kts
17-Mar-18 13:08 39.341776 -119.719736 111 11203ft 279kts
17-Mar-18 13:09 39.364545 -119.635360 28 13688ft 284kts
17-Mar-18 13:10 39.439722 -119.637900 355 15994ft 287kts
17-Mar-18 13:11 39.519235 -119.652963 349 18123ft 295kts
17-Mar-18 13:12 39.598545 -119.616611 22 20032ft 318kts
17-Mar-18 13:13 39.684566 -119.563904 21 21340ft 375kts
17-Mar-18 13:14 39.781838 -119.504957 22 23937ft 390kts
17-Mar-18 13:15 39.882323 -119.443990 22 26131ft 409kts
17-Mar-18 13:16 39.987145 -119.380164 22 28106ft 425kts
17-Mar-18 13:17 40.095099 -119.314218 22 28989ft 453kts
17-Mar-18 13:18 40.211534 -119.242755 22 28979ft 478kts
17-Mar-18 13:19 40.331623 -119.168720 23 28980ft 476kts
17-Mar-18 13:20 40.451095 -119.094749 23 28981ft 476kts
17-Mar-18 13:21 40.570903 -119.020257 23 28981ft 476kts
17-Mar-18 13:22 40.689962 -118.945914 23 28982ft 476kts
17-Mar-18 13:23 40.809295 -118.871088 23 28982ft 473kts
17-Mar-18 13:24 40.928073 -118.796278 23 28973ft 473kts
17-Mar-18 13:25 41.046578 -118.721335 23 28975ft 478kts
17-Mar-18 13:26 41.163124 -118.647320 23 28972ft 478kts
17-Mar-18 13:27 41.282665 -118.571102 24 28972ft 476kts
17-Mar-18 13:28 41.401686 -118.494880 24 28973ft 476kts
17-Mar-18 13:29 41.520796 -118.418293 24 28974ft 476kts
17-Mar-18 13:30 41.637622 -118.342871 24 28973ft 476kts
17-Mar-18 13:31 41.756050 -118.266135 24 28972ft 476kts
17-Mar-18 13:32 41.874848 -118.188829 25 28881ft 479kts
17-Mar-18 13:33 41.994531 -118.110606 25 28882ft 479kts
17-Mar-18 13:34 42.112239 -118.033396 25 28880ft 479kts
17-Mar-18 13:35 42.230539 -117.955452 25 28880ft 479kts
17-Mar-18 13:36 42.349066 -117.877075 25 28881ft 474kts
17-Mar-18 13:37 42.462167 -117.787558 46 28882ft 475kts
17-Mar-18 13:38 42.544900 -117.647283 51 28881ft 479kts
17-Mar-18 13:39 42.623342 -117.516315 51 28049ft 430kts
17-Mar-18 13:40 42.697245 -117.393120 50 25923ft 412kts
17-Mar-18 13:41 42.766272 -117.277584 51 23941ft 395kts
17-Mar-18 13:42 42.833610 -117.163702 51 21997ft 380kts
17-Mar-18 13:43 42.898640 -117.053017 52 20113ft 370kts
17-Mar-18 13:44 42.961901 -116.944968 51 18295ft 360kts
17-Mar-18 13:45 43.023588 -116.839232 51 16605ft 354kts
17-Mar-18 13:46 43.084338 -116.735872 50 14852ft 345kts
17-Mar-18 13:47 43.141939 -116.638307 50 13185ft 325kts
17-Mar-18 13:48 43.202460 -116.560240 13 11642ft 285kts
17-Mar-18 13:49 43.274866 -116.532269 13 10268ft 256kts
17-Mar-18 13:50 43.339737 -116.506544 13 9046ft 237kts
17-Mar-18 13:51 43.403354 -116.481118 13 7846ft 239kts
17-Mar-18 13:52 43.467040 -116.455552 13 6642ft 236kts
17-Mar-18 13:53 43.520462 -116.423002 33 5680ft 197kts
17-Mar-18 13:54 43.561402 -116.380614 33 5028ft 174kts
17-Mar-18 13:55 43.592377 -116.335603 72 4351ft 175kts
17-Mar-18 13:56 43.581417 -116.272120 111 3461ft 171kts
17-Mar-18 13:57 43.565312 -116.222202 116 2849ft 40kts
17-Mar-18 13:58 43.564322 -116.216757 359 2855ft 13kts
17-Mar-18 13:59 43.566926 -116.219836 31 2851ft 0kts
17-Mar-18 14:00 43.566926 -116.219836 31 2851ft 0kts
17-Mar-18 14:01 43.566926 -116.219836 31 2851ft 0kts
17-Mar-18 14:02 43.566926 -116.219836 31 2851ft 0kts
17-Mar-18 14:03 43.566926 -116.219836 31 2851ft 0kts
17-Mar-18 14:04 43.566926 -116.219836 31 2851ft 0kts
17-Mar-18 14:05 43.566926 -116.219836 31 2851ft 0kts
17-Mar-18 14:06 43.566926 -116.219836 31 2851ft 0kts
17-Mar-18 14:07 43.566926 -116.219836 31 2851ft 0kts
17-Mar-18 14:08 43.566926 -116.219836 31 2851ft 0kts
17-Mar-18 14:09 43.566926 -116.219836 31 2851ft 0kts
17-Mar-18 14:10 43.566926 -116.219836 31 2851ft 0kts
17-Mar-18 14:11 43.566926 -116.219836 31 2851ft 0kts

Navigation Log

Ident Type
Flight plan parsing failed, navigation log unavailable